createdAt,value
2023-03-12T00:02:47.595Z,7.17
2023-03-12T00:07:50.858Z,6.50
2023-03-12T00:12:53.572Z,4.43
2023-03-12T00:17:56.024Z,7.50
2023-03-12T00:22:58.779Z,6.70
2023-03-12T00:28:01.278Z,6.63
2023-03-12T00:33:04.068Z,4.97
2023-03-12T00:38:06.792Z,5.27
2023-03-12T00:43:09.356Z,6.03
2023-03-12T00:48:11.854Z,8.00
2023-03-12T00:53:14.447Z,13.03
2023-03-12T00:58:17.051Z,5.20
2023-03-12T01:03:20.183Z,5.50
2023-03-12T01:08:24.210Z,6.00
2023-03-12T01:13:26.969Z,4.23
2023-03-12T01:18:29.640Z,6.13
2023-03-12T01:23:32.846Z,7.87
2023-03-12T01:28:35.365Z,5.83
2023-03-12T01:33:38.080Z,5.17
2023-03-12T01:38:40.664Z,6.50
2023-03-12T01:43:43.451Z,5.93
2023-03-12T01:48:51.397Z,5.47
2023-03-12T01:53:57.885Z,4.30
2023-03-12T01:59:06.495Z,5.10
2023-03-12T02:04:09.654Z,8.00
2023-03-12T02:09:13.877Z,8.47
2023-03-12T02:14:16.806Z,4.67
2023-03-12T02:19:31.050Z,3.73
2023-03-12T02:24:36.100Z,4.70
2023-03-12T02:29:43.640Z,5.10
2023-03-12T02:34:48.149Z,4.00
2023-03-12T02:39:57.831Z,4.60
2023-03-12T02:45:01.727Z,6.60
2023-03-12T02:50:04.748Z,5.30
2023-03-12T02:55:08.951Z,2.90
2023-03-12T03:00:14.201Z,4.43
2023-03-12T03:05:21.680Z,3.20
2023-03-12T03:10:24.758Z,2.73
2023-03-12T03:15:27.545Z,3.27
2023-03-12T03:20:31.523Z,4.90
2023-03-12T03:25:34.661Z,3.10
2023-03-12T03:30:38.488Z,5.57
2023-03-12T03:35:42.984Z,5.17
2023-03-12T03:40:46.126Z,4.47
2023-03-12T03:45:49.372Z,3.83
2023-03-12T03:50:52.400Z,6.03
2023-03-12T03:55:55.223Z,3.13
2023-03-12T04:00:57.934Z,4.33
2023-03-12T04:06:03.230Z,6.40
2023-03-12T04:11:12.289Z,3.53
2023-03-12T04:16:15.936Z,5.70
2023-03-12T04:21:19.058Z,5.17
2023-03-12T04:26:24.482Z,3.33
2023-03-12T04:31:27.905Z,3.47
2023-03-12T04:36:30.590Z,4.37
2023-03-12T04:41:35.420Z,7.97
2023-03-12T04:46:43.886Z,2.60
2023-03-12T04:51:49.962Z,3.77
2023-03-12T04:56:54.235Z,3.17
2023-03-12T05:01:58.333Z,3.43
2023-03-12T05:07:04.469Z,4.60
2023-03-12T05:12:07.390Z,2.07
2023-03-12T05:17:10.341Z,6.80
2023-03-12T05:22:12.933Z,6.27
2023-03-12T05:27:15.635Z,3.37
2023-03-12T05:32:18.869Z,7.63
2023-03-12T05:37:21.705Z,4.07
2023-03-12T05:42:25.668Z,3.10
2023-03-12T05:47:31.072Z,3.43
2023-03-12T05:52:33.680Z,4.83
2023-03-12T05:57:36.400Z,5.07
2023-03-12T06:02:38.929Z,2.90
2023-03-12T06:07:41.968Z,3.80
2023-03-12T06:12:44.661Z,3.57
2023-03-12T06:17:47.329Z,10.63
2023-03-12T06:22:50.119Z,5.10
2023-03-12T06:27:52.625Z,5.90
2023-03-12T06:32:55.294Z,5.80
2023-03-12T06:37:57.842Z,4.10
2023-03-12T06:43:00.263Z,4.03
2023-03-12T06:48:02.841Z,5.67
2023-03-12T06:53:05.304Z,5.10
2023-03-12T06:58:07.858Z,3.93
2023-03-12T07:03:10.498Z,3.20
2023-03-12T07:08:13.676Z,4.00
2023-03-12T07:13:16.430Z,4.60
2023-03-12T07:18:19.003Z,3.67
2023-03-12T07:23:22.008Z,3.90
2023-03-12T07:28:24.646Z,2.40
2023-03-12T07:33:27.212Z,6.40
2023-03-12T07:38:30.024Z,3.17
2023-03-12T07:43:33.082Z,3.90
2023-03-12T07:48:35.774Z,6.03
2023-03-12T07:53:39.155Z,2.83
2023-03-12T07:58:41.817Z,6.03
2023-03-12T08:03:44.504Z,3.73
2023-03-12T08:08:47.015Z,3.63
2023-03-12T08:13:49.958Z,3.90
2023-03-12T08:18:52.567Z,4.10
2023-03-12T08:23:55.179Z,5.50
2023-03-12T08:29:00.221Z,2.20
2023-03-12T08:34:02.792Z,3.47
2023-03-12T08:39:05.424Z,3.30
2023-03-12T08:44:07.916Z,3.93
2023-03-12T08:49:10.451Z,4.13
2023-03-12T08:54:12.946Z,3.03
2023-03-12T08:59:15.496Z,1.67
2023-03-12T09:04:18.274Z,2.40
2023-03-12T09:09:20.836Z,2.43
2023-03-12T09:19:46.246Z,5.50
2023-03-12T09:24:48.820Z,7.00
2023-03-12T09:29:59.961Z,6.97
2023-03-12T09:35:03.451Z,4.40
2023-03-12T09:40:10.184Z,6.17
2023-03-12T09:45:28.553Z,6.30
2023-03-12T09:50:33.578Z,4.23
2023-03-12T09:55:40.014Z,7.63
2023-03-12T10:00:42.600Z,4.13
2023-03-12T10:06:04.583Z,4.07
2023-03-12T10:11:37.447Z,2.80
2023-03-12T10:16:46.675Z,2.67
2023-03-12T10:21:58.124Z,5.90
2023-03-12T10:27:01.999Z,1.97
2023-03-12T10:32:45.978Z,2.57
2023-03-12T10:37:53.638Z,4.53
2023-03-12T10:42:56.538Z,7.43
2023-03-12T10:48:07.219Z,2.90
2023-03-12T10:53:29.921Z,4.10
2023-03-12T10:58:54.104Z,5.93
2023-03-12T11:04:30.071Z,2.40
2023-03-12T11:09:33.052Z,4.23
2023-03-12T11:14:46.788Z,3.60
2023-03-12T11:19:49.334Z,1.80
2023-03-12T11:25:00.107Z,5.47
2023-03-12T11:30:05.974Z,1.27
2023-03-12T11:35:13.792Z,4.03
2023-03-12T11:40:49.287Z,4.27
2023-03-12T11:46:19.757Z,4.40
2023-03-12T11:51:43.825Z,5.33
2023-03-12T11:56:58.627Z,2.13
2023-03-12T12:02:50.843Z,7.33
2023-03-12T12:08:08.673Z,5.63
2023-03-12T12:13:32.536Z,4.57
2023-03-12T12:18:46.582Z,5.30
2023-03-12T12:24:01.336Z,3.73
2023-03-12T12:29:16.206Z,5.53
2023-03-12T12:34:24.751Z,3.70
2023-03-12T12:39:38.923Z,2.63
2023-03-12T12:44:46.573Z,6.97
2023-03-12T12:49:54.499Z,2.97
2023-03-12T12:55:30.006Z,3.80
2023-03-12T13:00:59.169Z,3.27
2023-03-12T13:06:04.619Z,5.53
2023-03-12T13:11:25.063Z,6.00
2023-03-12T13:16:35.386Z,3.83
2023-03-12T13:22:13.328Z,5.17
2023-03-12T13:27:40.314Z,7.67
2023-03-12T13:32:49.093Z,5.10
2023-03-12T13:37:51.647Z,1.07
2023-03-12T13:43:15.104Z,8.33
2023-03-12T13:48:20.993Z,2.27
2023-03-12T13:53:28.265Z,1.47
2023-03-12T13:58:31.897Z,5.87
2023-03-12T14:03:41.242Z,1.27
2023-03-12T14:09:24.343Z,3.00
2023-03-12T14:14:48.296Z,3.03
2023-03-12T14:20:18.783Z,2.13
2023-03-12T14:25:39.558Z,3.50
2023-03-12T14:31:05.754Z,6.30
2023-03-12T14:36:15.142Z,6.87
2023-03-12T14:41:23.151Z,5.93
2023-03-12T14:46:25.674Z,5.33
2023-03-12T14:51:31.169Z,4.93
2023-03-12T14:56:36.015Z,7.40
2023-03-12T15:01:40.366Z,4.80
2023-03-12T15:06:58.984Z,9.87
2023-03-12T15:12:18.790Z,6.40
2023-03-12T15:17:24.197Z,7.07
2023-03-12T15:22:30.110Z,4.40
2023-03-12T15:27:33.983Z,7.47
2023-03-12T15:32:36.542Z,4.23
2023-03-12T15:37:41.134Z,8.57
2023-03-12T15:42:47.081Z,9.07
2023-03-12T15:47:52.062Z,4.27
2023-03-12T15:53:03.336Z,3.57
2023-03-12T15:58:36.909Z,6.37
2023-03-12T16:03:40.964Z,8.13
2023-03-12T16:08:53.323Z,6.33
2023-03-12T16:14:18.372Z,17.97
2023-03-12T16:19:23.195Z,11.93
2023-03-12T16:24:26.048Z,23.77
2023-03-12T16:29:33.539Z,22.87
2023-03-12T16:34:36.153Z,22.67
2023-03-12T16:39:39.160Z,21.97
2023-03-12T16:44:43.087Z,44.87
2023-03-12T16:49:47.620Z,60.63
2023-03-12T16:54:50.914Z,51.47
2023-03-12T16:59:54.315Z,32.70
2023-03-12T17:04:56.954Z,24.10
2023-03-12T17:09:59.855Z,21.67
2023-03-12T17:15:05.141Z,18.10
2023-03-12T17:20:10.607Z,23.97
2023-03-12T17:25:26.198Z,37.43
2023-03-12T17:30:30.202Z,24.67
2023-03-12T17:35:33.432Z,29.87
2023-03-12T17:40:40.608Z,31.47
2023-03-12T17:45:43.404Z,28.30
2023-03-12T17:50:45.953Z,29.00
2023-03-12T17:55:48.525Z,19.40
2023-03-12T18:00:51.156Z,17.87
2023-03-12T18:05:53.803Z,20.17
2023-03-12T18:10:56.631Z,19.63
2023-03-12T18:15:59.668Z,22.60
2023-03-12T18:21:02.202Z,20.30
2023-03-12T18:26:05.593Z,26.63
2023-03-12T18:31:08.760Z,19.00
2023-03-12T18:36:11.770Z,15.60
2023-03-12T18:41:14.961Z,19.67
2023-03-12T18:46:19.055Z,14.93
2023-03-12T18:51:21.909Z,14.00
2023-03-12T18:56:24.408Z,17.33
2023-03-12T19:01:27.102Z,14.60
2023-03-12T19:06:35.041Z,14.83
2023-03-12T19:11:43.500Z,16.60
2023-03-12T19:16:45.995Z,13.47
2023-03-12T19:21:49.205Z,14.03
2023-03-12T19:26:51.787Z,17.93
2023-03-12T19:31:54.808Z,18.53
2023-03-12T19:36:57.392Z,20.60
2023-03-12T19:41:59.986Z,29.83
2023-03-12T19:47:07.057Z,23.43
2023-03-12T19:52:10.282Z,12.40
2023-03-12T19:57:12.769Z,12.17
2023-03-12T20:02:15.688Z,10.60
2023-03-12T20:07:18.527Z,19.17
2023-03-12T20:12:21.178Z,12.67
2023-03-12T20:17:23.713Z,13.67
2023-03-12T20:22:26.313Z,16.87
2023-03-12T20:27:28.871Z,15.10
2023-03-12T20:32:31.600Z,12.07
2023-03-12T20:37:34.143Z,15.43
2023-03-12T20:42:36.728Z,14.00
2023-03-12T20:47:40.411Z,19.80
2023-03-12T20:52:45.097Z,15.03
2023-03-12T20:57:47.673Z,15.70
2023-03-12T21:02:50.234Z,13.87
2023-03-12T21:07:53.817Z,17.20
2023-03-12T21:12:56.469Z,13.70
2023-03-12T21:17:59.010Z,13.40
2023-03-12T21:23:01.708Z,8.27
2023-03-12T21:28:06.322Z,9.13
2023-03-12T21:33:08.904Z,11.43
2023-03-12T21:38:12.121Z,10.47
2023-03-12T21:43:14.718Z,10.57
2023-03-12T21:48:17.270Z,12.63
2023-03-12T21:53:23.861Z,9.70
2023-03-12T21:58:28.333Z,8.67
2023-03-12T22:03:30.873Z,10.20
2023-03-12T22:08:34.156Z,11.43
2023-03-12T22:13:37.543Z,7.83
2023-03-12T22:18:42.824Z,12.70
2023-03-12T22:23:48.105Z,14.30
2023-03-12T22:28:53.138Z,11.40
2023-03-12T22:33:56.924Z,8.00
2023-03-12T22:38:59.538Z,10.87
2023-03-12T22:44:05.539Z,6.57
2023-03-12T22:49:08.241Z,7.50
2023-03-12T22:54:12.135Z,5.77
2023-03-12T22:59:14.703Z,7.43
2023-03-12T23:04:17.394Z,8.20
2023-03-12T23:09:20.028Z,12.87
2023-03-12T23:14:22.757Z,11.17
2023-03-12T23:19:25.221Z,9.43
2023-03-12T23:24:32.970Z,8.17
2023-03-12T23:29:35.896Z,9.17
2023-03-12T23:34:38.431Z,8.00
2023-03-12T23:39:53.920Z,9.67
2023-03-12T23:44:57.215Z,11.63
2023-03-12T23:49:59.849Z,9.20
2023-03-12T23:55:02.364Z,8.77
